sensor_id;sensor_type;location;lat;lon;timestamp;P1;durP1;ratioP1;P2;durP2;ratioP2
18176;SDS011;9213;50.858;3.964;2022-12-10T00:01:25;98.77;;;29.73;;
18176;SDS011;9213;50.858;3.964;2022-12-10T00:03:53;95.50;;;29.77;;
18176;SDS011;9213;50.858;3.964;2022-12-10T00:06:21;85.50;;;28.50;;
18176;SDS011;9213;50.858;3.964;2022-12-10T00:08:49;138.57;;;30.73;;
18176;SDS011;9213;50.858;3.964;2022-12-10T00:11:17;120.83;;;29.73;;
18176;SDS011;9213;50.858;3.964;2022-12-10T00:13:46;108.23;;;29.90;;
18176;SDS011;9213;50.858;3.964;2022-12-10T00:16:15;178.40;;;32.43;;
18176;SDS011;9213;50.858;3.964;2022-12-10T00:18:43;101.47;;;27.33;;
18176;SDS011;9213;50.858;3.964;2022-12-10T00:21:11;138.90;;;29.30;;
18176;SDS011;9213;50.858;3.964;2022-12-10T00:23:40;164.37;;;32.20;;
18176;SDS011;9213;50.858;3.964;2022-12-10T00:26:08;103.80;;;31.40;;
18176;SDS011;9213;50.858;3.964;2022-12-10T00:28:36;108.93;;;30.67;;
18176;SDS011;9213;50.858;3.964;2022-12-10T00:31:03;147.20;;;31.80;;
18176;SDS011;9213;50.858;3.964;2022-12-10T00:33:33;266.37;;;31.87;;
18176;SDS011;9213;50.858;3.964;2022-12-10T00:36:03;146.93;;;30.17;;
18176;SDS011;9213;50.858;3.964;2022-12-10T00:38:32;181.87;;;30.97;;
18176;SDS011;9213;50.858;3.964;2022-12-10T00:40:59;241.37;;;31.00;;
18176;SDS011;9213;50.858;3.964;2022-12-10T00:43:26;111.50;;;28.73;;
18176;SDS011;9213;50.858;3.964;2022-12-10T00:45:53;139.53;;;30.13;;
18176;SDS011;9213;50.858;3.964;2022-12-10T00:48:20;123.73;;;28.93;;
18176;SDS011;9213;50.858;3.964;2022-12-10T00:50:55;106.07;;;31.77;;
18176;SDS011;9213;50.858;3.964;2022-12-10T00:53:23;140.57;;;30.73;;
18176;SDS011;9213;50.858;3.964;2022-12-10T00:55:51;121.40;;;31.20;;
18176;SDS011;9213;50.858;3.964;2022-12-10T00:58:18;194.50;;;31.43;;
18176;SDS011;9213;50.858;3.964;2022-12-10T01:00:45;136.53;;;32.50;;
18176;SDS011;9213;50.858;3.964;2022-12-10T01:03:12;177.13;;;30.50;;
18176;SDS011;9213;50.858;3.964;2022-12-10T01:05:39;122.57;;;33.93;;
18176;SDS011;9213;50.858;3.964;2022-12-10T01:08:07;95.43;;;27.97;;
18176;SDS011;9213;50.858;3.964;2022-12-10T01:10:34;177.63;;;31.63;;
18176;SDS011;9213;50.858;3.964;2022-12-10T01:13:01;112.73;;;28.93;;
18176;SDS011;9213;50.858;3.964;2022-12-10T01:15:28;128.07;;;29.10;;
18176;SDS011;9213;50.858;3.964;2022-12-10T01:17:55;151.10;;;29.37;;
18176;SDS011;9213;50.858;3.964;2022-12-10T01:20:22;175.50;;;30.73;;
18176;SDS011;9213;50.858;3.964;2022-12-10T01:22:49;184.00;;;30.20;;
18176;SDS011;9213;50.858;3.964;2022-12-10T01:25:17;441.13;;;34.63;;
18176;SDS011;9213;50.858;3.964;2022-12-10T01:27:44;338.13;;;33.90;;
18176;SDS011;9213;50.858;3.964;2022-12-10T01:30:11;223.07;;;33.13;;
18176;SDS011;9213;50.858;3.964;2022-12-10T01:32:38;223.47;;;33.73;;
18176;SDS011;9213;50.858;3.964;2022-12-10T01:35:05;181.77;;;31.83;;
18176;SDS011;9213;50.858;3.964;2022-12-10T01:37:33;135.40;;;31.93;;
18176;SDS011;9213;50.858;3.964;2022-12-10T01:39:59;154.70;;;34.43;;
18176;SDS011;9213;50.858;3.964;2022-12-10T01:42:28;143.87;;;32.90;;
18176;SDS011;9213;50.858;3.964;2022-12-10T01:45:06;177.53;;;33.33;;
18176;SDS011;9213;50.858;3.964;2022-12-10T01:47:36;184.30;;;30.67;;
18176;SDS011;9213;50.858;3.964;2022-12-10T01:50:04;239.00;;;34.17;;
18176;SDS011;9213;50.858;3.964;2022-12-10T01:52:32;189.70;;;33.57;;
18176;SDS011;9213;50.858;3.964;2022-12-10T01:54:59;165.17;;;32.30;;
18176;SDS011;9213;50.858;3.964;2022-12-10T01:57:27;186.40;;;31.03;;
18176;SDS011;9213;50.858;3.964;2022-12-10T01:59:55;238.27;;;33.67;;
18176;SDS011;9213;50.858;3.964;2022-12-10T02:02:28;209.87;;;31.43;;
18176;SDS011;9213;50.858;3.964;2022-12-10T02:05:08;203.30;;;32.20;;
18176;SDS011;9213;50.858;3.964;2022-12-10T02:07:46;159.30;;;30.40;;
18176;SDS011;9213;50.858;3.964;2022-12-10T02:10:23;120.00;;;29.97;;
18176;SDS011;9213;50.858;3.964;2022-12-10T02:13:01;172.57;;;31.20;;
18176;SDS011;9213;50.858;3.964;2022-12-10T02:15:33;119.83;;;32.50;;
18176;SDS011;9213;50.858;3.964;2022-12-10T02:18:06;149.07;;;34.27;;
18176;SDS011;9213;50.858;3.964;2022-12-10T02:20:36;134.83;;;33.87;;
18176;SDS011;9213;50.858;3.964;2022-12-10T02:23:07;111.83;;;31.77;;
18176;SDS011;9213;50.858;3.964;2022-12-10T02:25:37;155.73;;;32.17;;
18176;SDS011;9213;50.858;3.964;2022-12-10T02:28:13;146.00;;;32.67;;
18176;SDS011;9213;50.858;3.964;2022-12-10T02:30:48;247.90;;;35.67;;
18176;SDS011;9213;50.858;3.964;2022-12-10T02:33:17;149.90;;;33.23;;
18176;SDS011;9213;50.858;3.964;2022-12-10T02:35:46;126.47;;;33.90;;
18176;SDS011;9213;50.858;3.964;2022-12-10T02:38:16;162.53;;;33.80;;
18176;SDS011;9213;50.858;3.964;2022-12-10T02:40:47;185.00;;;35.23;;
18176;SDS011;9213;50.858;3.964;2022-12-10T02:43:18;130.50;;;33.07;;
18176;SDS011;9213;50.858;3.964;2022-12-10T02:45:49;132.13;;;34.17;;
18176;SDS011;9213;50.858;3.964;2022-12-10T02:48:17;140.03;;;35.50;;
18176;SDS011;9213;50.858;3.964;2022-12-10T02:50:45;151.17;;;33.53;;
18176;SDS011;9213;50.858;3.964;2022-12-10T02:53:12;139.07;;;35.67;;
18176;SDS011;9213;50.858;3.964;2022-12-10T02:55:47;209.00;;;37.50;;
18176;SDS011;9213;50.858;3.964;2022-12-10T02:58:25;161.47;;;37.73;;
18176;SDS011;9213;50.858;3.964;2022-12-10T03:00:59;162.00;;;36.90;;
18176;SDS011;9213;50.858;3.964;2022-12-10T03:03:34;161.37;;;38.17;;
18176;SDS011;9213;50.858;3.964;2022-12-10T03:06:08;189.93;;;36.73;;
18176;SDS011;9213;50.858;3.964;2022-12-10T03:08:42;171.40;;;37.77;;
18176;SDS011;9213;50.858;3.964;2022-12-10T03:11:16;149.93;;;39.20;;
18176;SDS011;9213;50.858;3.964;2022-12-10T03:13:46;223.50;;;39.50;;
18176;SDS011;9213;50.858;3.964;2022-12-10T03:16:19;211.33;;;40.33;;
18176;SDS011;9213;50.858;3.964;2022-12-10T03:18:48;208.73;;;39.93;;
18176;SDS011;9213;50.858;3.964;2022-12-10T03:21:21;211.40;;;41.93;;
18176;SDS011;9213;50.858;3.964;2022-12-10T03:23:50;198.80;;;41.17;;
18176;SDS011;9213;50.858;3.964;2022-12-10T03:26:17;205.90;;;43.60;;
18176;SDS011;9213;50.858;3.964;2022-12-10T03:28:49;168.43;;;40.63;;
18176;SDS011;9213;50.858;3.964;2022-12-10T03:31:19;156.70;;;38.53;;
18176;SDS011;9213;50.858;3.964;2022-12-10T03:33:47;254.63;;;39.47;;
18176;SDS011;9213;50.858;3.964;2022-12-10T03:36:15;238.43;;;40.77;;
18176;SDS011;9213;50.858;3.964;2022-12-10T03:38:44;247.20;;;39.33;;
18176;SDS011;9213;50.858;3.964;2022-12-10T03:41:11;192.23;;;39.07;;
18176;SDS011;9213;50.858;3.964;2022-12-10T03:43:49;387.93;;;44.33;;
18176;SDS011;9213;50.858;3.964;2022-12-10T03:46:17;265.97;;;40.90;;
18176;SDS011;9213;50.858;3.964;2022-12-10T03:48:45;321.53;;;39.83;;
18176;SDS011;9213;50.858;3.964;2022-12-10T03:51:12;360.20;;;40.93;;
18176;SDS011;9213;50.858;3.964;2022-12-10T03:53:40;406.57;;;42.57;;
18176;SDS011;9213;50.858;3.964;2022-12-10T03:56:07;470.77;;;43.00;;
18176;SDS011;9213;50.858;3.964;2022-12-10T03:58:33;413.63;;;40.60;;
18176;SDS011;9213;50.858;3.964;2022-12-10T04:01:00;452.67;;;42.67;;
18176;SDS011;9213;50.858;3.964;2022-12-10T04:03:27;348.03;;;40.73;;
18176;SDS011;9213;50.858;3.964;2022-12-10T04:06:00;444.70;;;41.77;;
18176;SDS011;9213;50.858;3.964;2022-12-10T04:08:27;294.57;;;38.47;;
18176;SDS011;9213;50.858;3.964;2022-12-10T04:10:54;414.97;;;40.23;;
18176;SDS011;9213;50.858;3.964;2022-12-10T04:13:21;359.57;;;40.10;;
18176;SDS011;9213;50.858;3.964;2022-12-10T04:16:05;371.83;;;41.60;;
18176;SDS011;9213;50.858;3.964;2022-12-10T04:18:51;412.93;;;40.07;;
18176;SDS011;9213;50.858;3.964;2022-12-10T04:21:19;450.03;;;43.07;;
18176;SDS011;9213;50.858;3.964;2022-12-10T04:24:03;464.37;;;43.13;;
18176;SDS011;9213;50.858;3.964;2022-12-10T04:26:48;375.27;;;39.13;;
18176;SDS011;9213;50.858;3.964;2022-12-10T04:29:18;396.37;;;38.93;;
18176;SDS011;9213;50.858;3.964;2022-12-10T04:31:45;397.07;;;38.47;;
18176;SDS011;9213;50.858;3.964;2022-12-10T04:34:12;416.93;;;36.73;;
18176;SDS011;9213;50.858;3.964;2022-12-10T04:36:40;364.17;;;37.97;;
18176;SDS011;9213;50.858;3.964;2022-12-10T04:39:07;380.40;;;35.97;;
18176;SDS011;9213;50.858;3.964;2022-12-10T04:41:36;332.40;;;37.37;;
18176;SDS011;9213;50.858;3.964;2022-12-10T04:44:03;317.27;;;35.73;;
18176;SDS011;9213;50.858;3.964;2022-12-10T04:46:30;347.33;;;34.33;;
18176;SDS011;9213;50.858;3.964;2022-12-10T04:48:57;378.37;;;35.33;;
18176;SDS011;9213;50.858;3.964;2022-12-10T04:51:24;289.53;;;34.73;;
18176;SDS011;9213;50.858;3.964;2022-12-10T04:53:52;234.07;;;32.00;;
18176;SDS011;9213;50.858;3.964;2022-12-10T04:56:19;439.17;;;38.03;;
18176;SDS011;9213;50.858;3.964;2022-12-10T04:58:47;284.83;;;33.37;;
18176;SDS011;9213;50.858;3.964;2022-12-10T05:01:13;337.27;;;35.00;;
18176;SDS011;9213;50.858;3.964;2022-12-10T05:03:40;243.93;;;32.43;;
18176;SDS011;9213;50.858;3.964;2022-12-10T05:06:08;319.70;;;33.43;;
18176;SDS011;9213;50.858;3.964;2022-12-10T05:08:37;466.63;;;35.07;;
18176;SDS011;9213;50.858;3.964;2022-12-10T05:11:07;310.60;;;35.17;;
18176;SDS011;9213;50.858;3.964;2022-12-10T05:13:36;278.47;;;34.37;;
18176;SDS011;9213;50.858;3.964;2022-12-10T05:16:03;402.93;;;37.07;;
18176;SDS011;9213;50.858;3.964;2022-12-10T05:18:31;403.23;;;40.30;;
18176;SDS011;9213;50.858;3.964;2022-12-10T05:20:59;359.97;;;37.47;;
18176;SDS011;9213;50.858;3.964;2022-12-10T05:23:26;479.10;;;37.20;;
18176;SDS011;9213;50.858;3.964;2022-12-10T05:25:57;283.40;;;30.13;;
18176;SDS011;9213;50.858;3.964;2022-12-10T05:28:26;310.27;;;30.27;;
18176;SDS011;9213;50.858;3.964;2022-12-10T05:30:53;210.47;;;30.73;;
18176;SDS011;9213;50.858;3.964;2022-12-10T05:33:20;323.30;;;30.93;;
18176;SDS011;9213;50.858;3.964;2022-12-10T05:35:53;179.67;;;30.37;;
18176;SDS011;9213;50.858;3.964;2022-12-10T05:38:22;333.37;;;29.40;;
18176;SDS011;9213;50.858;3.964;2022-12-10T05:40:49;254.30;;;30.97;;
18176;SDS011;9213;50.858;3.964;2022-12-10T05:43:16;282.73;;;30.83;;
18176;SDS011;9213;50.858;3.964;2022-12-10T05:45:44;219.80;;;31.27;;
18176;SDS011;9213;50.858;3.964;2022-12-10T05:48:12;169.83;;;31.23;;
18176;SDS011;9213;50.858;3.964;2022-12-10T05:50:40;161.77;;;25.67;;
18176;SDS011;9213;50.858;3.964;2022-12-10T05:53:07;276.30;;;29.70;;
18176;SDS011;9213;50.858;3.964;2022-12-10T05:55:34;225.37;;;29.17;;
18176;SDS011;9213;50.858;3.964;2022-12-10T05:58:01;164.43;;;29.47;;
18176;SDS011;9213;50.858;3.964;2022-12-10T06:00:28;302.63;;;30.77;;
18176;SDS011;9213;50.858;3.964;2022-12-10T06:02:56;262.70;;;32.77;;
18176;SDS011;9213;50.858;3.964;2022-12-10T06:05:23;292.07;;;32.43;;
18176;SDS011;9213;50.858;3.964;2022-12-10T06:07:50;323.43;;;32.07;;
18176;SDS011;9213;50.858;3.964;2022-12-10T06:10:17;322.33;;;31.70;;
18176;SDS011;9213;50.858;3.964;2022-12-10T06:12:44;233.23;;;30.43;;
18176;SDS011;9213;50.858;3.964;2022-12-10T06:15:11;249.07;;;31.37;;
18176;SDS011;9213;50.858;3.964;2022-12-10T06:17:38;354.57;;;31.50;;
18176;SDS011;9213;50.858;3.964;2022-12-10T06:20:07;185.97;;;28.60;;
18176;SDS011;9213;50.858;3.964;2022-12-10T06:22:34;259.80;;;30.17;;
18176;SDS011;9213;50.858;3.964;2022-12-10T06:25:01;241.10;;;31.50;;
18176;SDS011;9213;50.858;3.964;2022-12-10T06:27:30;249.97;;;30.47;;
18176;SDS011;9213;50.858;3.964;2022-12-10T06:29:57;202.93;;;28.80;;
18176;SDS011;9213;50.858;3.964;2022-12-10T06:32:24;257.50;;;29.77;;
18176;SDS011;9213;50.858;3.964;2022-12-10T06:34:51;221.87;;;27.10;;
18176;SDS011;9213;50.858;3.964;2022-12-10T06:37:19;196.50;;;22.73;;
18176;SDS011;9213;50.858;3.964;2022-12-10T06:39:46;158.43;;;22.63;;
18176;SDS011;9213;50.858;3.964;2022-12-10T06:42:13;136.40;;;21.87;;
18176;SDS011;9213;50.858;3.964;2022-12-10T06:44:40;152.90;;;21.83;;
18176;SDS011;9213;50.858;3.964;2022-12-10T06:47:07;123.23;;;21.53;;
18176;SDS011;9213;50.858;3.964;2022-12-10T06:49:34;183.50;;;23.37;;
18176;SDS011;9213;50.858;3.964;2022-12-10T06:52:01;134.27;;;20.47;;
18176;SDS011;9213;50.858;3.964;2022-12-10T06:54:29;198.87;;;22.90;;
18176;SDS011;9213;50.858;3.964;2022-12-10T06:56:57;184.63;;;22.10;;
18176;SDS011;9213;50.858;3.964;2022-12-10T06:59:24;120.30;;;22.27;;
18176;SDS011;9213;50.858;3.964;2022-12-10T07:01:51;160.07;;;22.40;;
18176;SDS011;9213;50.858;3.964;2022-12-10T07:04:18;187.70;;;23.43;;
18176;SDS011;9213;50.858;3.964;2022-12-10T07:06:45;146.70;;;23.53;;
18176;SDS011;9213;50.858;3.964;2022-12-10T07:09:12;135.87;;;20.87;;
18176;SDS011;9213;50.858;3.964;2022-12-10T07:11:40;112.83;;;20.80;;
18176;SDS011;9213;50.858;3.964;2022-12-10T07:14:07;128.87;;;21.93;;
18176;SDS011;9213;50.858;3.964;2022-12-10T07:16:37;186.03;;;22.37;;
18176;SDS011;9213;50.858;3.964;2022-12-10T07:19:04;159.10;;;28.43;;
18176;SDS011;9213;50.858;3.964;2022-12-10T07:21:31;212.70;;;53.03;;
18176;SDS011;9213;50.858;3.964;2022-12-10T07:24:00;153.07;;;26.87;;
18176;SDS011;9213;50.858;3.964;2022-12-10T07:26:29;120.70;;;24.17;;
18176;SDS011;9213;50.858;3.964;2022-12-10T07:28:59;183.10;;;26.30;;
18176;SDS011;9213;50.858;3.964;2022-12-10T07:31:26;133.50;;;26.97;;
18176;SDS011;9213;50.858;3.964;2022-12-10T07:33:54;187.97;;;25.40;;
18176;SDS011;9213;50.858;3.964;2022-12-10T07:36:23;212.37;;;52.77;;
18176;SDS011;9213;50.858;3.964;2022-12-10T07:38:51;130.90;;;26.97;;
18176;SDS011;9213;50.858;3.964;2022-12-10T07:41:19;161.03;;;31.70;;
18176;SDS011;9213;50.858;3.964;2022-12-10T07:43:46;210.27;;;29.23;;
18176;SDS011;9213;50.858;3.964;2022-12-10T07:46:16;186.33;;;25.53;;
18176;SDS011;9213;50.858;3.964;2022-12-10T07:48:44;106.03;;;24.30;;
18176;SDS011;9213;50.858;3.964;2022-12-10T07:51:12;170.50;;;29.57;;
18176;SDS011;9213;50.858;3.964;2022-12-10T07:53:39;167.33;;;25.67;;
18176;SDS011;9213;50.858;3.964;2022-12-10T07:56:06;152.17;;;22.37;;
18176;SDS011;9213;50.858;3.964;2022-12-10T07:58:33;145.90;;;21.73;;
18176;SDS011;9213;50.858;3.964;2022-12-10T08:01:05;208.13;;;23.30;;
18176;SDS011;9213;50.858;3.964;2022-12-10T08:03:34;161.87;;;22.50;;
18176;SDS011;9213;50.858;3.964;2022-12-10T08:06:01;205.10;;;24.70;;
18176;SDS011;9213;50.858;3.964;2022-12-10T08:08:28;203.27;;;22.73;;
18176;SDS011;9213;50.858;3.964;2022-12-10T08:10:58;214.40;;;24.03;;
18176;SDS011;9213;50.858;3.964;2022-12-10T08:13:25;146.60;;;23.00;;
18176;SDS011;9213;50.858;3.964;2022-12-10T08:15:52;163.93;;;21.23;;
18176;SDS011;9213;50.858;3.964;2022-12-10T08:18:19;144.47;;;22.63;;
18176;SDS011;9213;50.858;3.964;2022-12-10T08:20:47;216.13;;;22.83;;
18176;SDS011;9213;50.858;3.964;2022-12-10T08:23:14;162.63;;;24.03;;
18176;SDS011;9213;50.858;3.964;2022-12-10T08:25:41;151.57;;;24.40;;
18176;SDS011;9213;50.858;3.964;2022-12-10T08:28:08;160.03;;;26.87;;
18176;SDS011;9213;50.858;3.964;2022-12-10T08:30:35;158.70;;;22.23;;
18176;SDS011;9213;50.858;3.964;2022-12-10T08:33:02;127.90;;;24.60;;
18176;SDS011;9213;50.858;3.964;2022-12-10T08:35:29;158.77;;;24.00;;
18176;SDS011;9213;50.858;3.964;2022-12-10T08:37:57;191.47;;;24.30;;
18176;SDS011;9213;50.858;3.964;2022-12-10T08:40:24;140.30;;;28.07;;
18176;SDS011;9213;50.858;3.964;2022-12-10T08:42:51;224.50;;;26.67;;
18176;SDS011;9213;50.858;3.964;2022-12-10T08:45:18;215.93;;;26.00;;
18176;SDS011;9213;50.858;3.964;2022-12-10T08:47:45;259.97;;;27.10;;
18176;SDS011;9213;50.858;3.964;2022-12-10T08:50:12;228.57;;;26.37;;
18176;SDS011;9213;50.858;3.964;2022-12-10T08:52:38;175.73;;;26.70;;
18176;SDS011;9213;50.858;3.964;2022-12-10T08:55:07;291.83;;;28.53;;
18176;SDS011;9213;50.858;3.964;2022-12-10T08:57:34;175.40;;;24.53;;
18176;SDS011;9213;50.858;3.964;2022-12-10T09:00:02;241.33;;;27.47;;
18176;SDS011;9213;50.858;3.964;2022-12-10T09:02:29;251.20;;;26.60;;
18176;SDS011;9213;50.858;3.964;2022-12-10T09:04:56;247.37;;;24.87;;
18176;SDS011;9213;50.858;3.964;2022-12-10T09:07:23;208.43;;;24.43;;
18176;SDS011;9213;50.858;3.964;2022-12-10T09:09:50;215.80;;;27.43;;
18176;SDS011;9213;50.858;3.964;2022-12-10T09:12:18;217.13;;;26.47;;
18176;SDS011;9213;50.858;3.964;2022-12-10T09:14:45;209.67;;;24.87;;
18176;SDS011;9213;50.858;3.964;2022-12-10T09:17:12;130.27;;;23.40;;
18176;SDS011;9213;50.858;3.964;2022-12-10T09:19:38;151.00;;;25.30;;
18176;SDS011;9213;50.858;3.964;2022-12-10T09:22:05;239.67;;;27.03;;
18176;SDS011;9213;50.858;3.964;2022-12-10T09:24:33;280.97;;;27.77;;
18176;SDS011;9213;50.858;3.964;2022-12-10T09:27:00;187.73;;;24.73;;
18176;SDS011;9213;50.858;3.964;2022-12-10T09:29:30;198.30;;;26.17;;
18176;SDS011;9213;50.858;3.964;2022-12-10T09:31:56;208.10;;;27.90;;
18176;SDS011;9213;50.858;3.964;2022-12-10T09:34:23;233.80;;;25.40;;
18176;SDS011;9213;50.858;3.964;2022-12-10T09:36:50;185.10;;;24.87;;
18176;SDS011;9213;50.858;3.964;2022-12-10T09:39:17;182.90;;;23.97;;
18176;SDS011;9213;50.858;3.964;2022-12-10T09:44:43;180.33;;;24.70;;
18176;SDS011;9213;50.858;3.964;2022-12-10T09:47:16;226.60;;;28.10;;
18176;SDS011;9213;50.858;3.964;2022-12-10T09:49:47;185.87;;;23.53;;
18176;SDS011;9213;50.858;3.964;2022-12-10T09:52:21;211.90;;;25.87;;
18176;SDS011;9213;50.858;3.964;2022-12-10T09:54:52;172.27;;;25.47;;
18176;SDS011;9213;50.858;3.964;2022-12-10T09:57:22;149.00;;;23.83;;
18176;SDS011;9213;50.858;3.964;2022-12-10T09:59:53;235.13;;;26.77;;
18176;SDS011;9213;50.858;3.964;2022-12-10T10:02:22;210.83;;;26.50;;
18176;SDS011;9213;50.858;3.964;2022-12-10T10:04:54;130.97;;;23.83;;
18176;SDS011;9213;50.858;3.964;2022-12-10T10:07:26;106.70;;;22.93;;
18176;SDS011;9213;50.858;3.964;2022-12-10T10:09:55;141.63;;;21.57;;
18176;SDS011;9213;50.858;3.964;2022-12-10T10:12:25;160.67;;;21.20;;
18176;SDS011;9213;50.858;3.964;2022-12-10T10:14:54;183.97;;;24.13;;
18176;SDS011;9213;50.858;3.964;2022-12-10T10:17:22;164.07;;;22.10;;
18176;SDS011;9213;50.858;3.964;2022-12-10T10:19:55;157.13;;;23.20;;
18176;SDS011;9213;50.858;3.964;2022-12-10T10:22:22;161.27;;;22.10;;
18176;SDS011;9213;50.858;3.964;2022-12-10T10:24:50;113.97;;;20.20;;
18176;SDS011;9213;50.858;3.964;2022-12-10T10:27:17;161.30;;;22.87;;
18176;SDS011;9213;50.858;3.964;2022-12-10T10:29:48;117.93;;;20.97;;
18176;SDS011;9213;50.858;3.964;2022-12-10T10:32:18;127.23;;;21.60;;
18176;SDS011;9213;50.858;3.964;2022-12-10T10:34:51;109.97;;;21.50;;
18176;SDS011;9213;50.858;3.964;2022-12-10T10:37:19;142.20;;;20.30;;
18176;SDS011;9213;50.858;3.964;2022-12-10T10:39:48;182.87;;;21.47;;
18176;SDS011;9213;50.858;3.964;2022-12-10T10:42:23;163.10;;;23.20;;
18176;SDS011;9213;50.858;3.964;2022-12-10T10:44:54;106.70;;;20.80;;
18176;SDS011;9213;50.858;3.964;2022-12-10T10:47:27;137.53;;;22.10;;
18176;SDS011;9213;50.858;3.964;2022-12-10T10:49:55;90.33;;;19.70;;
18176;SDS011;9213;50.858;3.964;2022-12-10T10:52:22;98.67;;;19.90;;
18176;SDS011;9213;50.858;3.964;2022-12-10T10:54:53;97.67;;;20.33;;
18176;SDS011;9213;50.858;3.964;2022-12-10T10:57:21;152.37;;;21.17;;
18176;SDS011;9213;50.858;3.964;2022-12-10T10:59:51;95.43;;;21.40;;
18176;SDS011;9213;50.858;3.964;2022-12-10T11:02:21;110.43;;;20.00;;
18176;SDS011;9213;50.858;3.964;2022-12-10T11:04:53;125.00;;;20.80;;
18176;SDS011;9213;50.858;3.964;2022-12-10T11:07:24;144.10;;;21.97;;
18176;SDS011;9213;50.858;3.964;2022-12-10T11:09:59;112.27;;;21.67;;
18176;SDS011;9213;50.858;3.964;2022-12-10T11:12:31;106.50;;;20.13;;
18176;SDS011;9213;50.858;3.964;2022-12-10T11:15:01;109.87;;;21.03;;
18176;SDS011;9213;50.858;3.964;2022-12-10T11:17:40;128.07;;;20.27;;
18176;SDS011;9213;50.858;3.964;2022-12-10T11:20:17;139.93;;;21.33;;
18176;SDS011;9213;50.858;3.964;2022-12-10T11:22:48;123.27;;;22.50;;
18176;SDS011;9213;50.858;3.964;2022-12-10T11:25:16;161.90;;;23.50;;
18176;SDS011;9213;50.858;3.964;2022-12-10T11:27:48;127.40;;;23.23;;
18176;SDS011;9213;50.858;3.964;2022-12-10T11:30:23;124.00;;;21.97;;
18176;SDS011;9213;50.858;3.964;2022-12-10T11:32:56;136.20;;;21.03;;
18176;SDS011;9213;50.858;3.964;2022-12-10T11:35:42;114.43;;;21.17;;
18176;SDS011;9213;50.858;3.964;2022-12-10T11:38:20;99.93;;;21.87;;
18176;SDS011;9213;50.858;3.964;2022-12-10T11:40:51;125.60;;;21.67;;
18176;SDS011;9213;50.858;3.964;2022-12-10T11:43:35;104.37;;;20.53;;
18176;SDS011;9213;50.858;3.964;2022-12-10T11:46:21;118.83;;;22.30;;
18176;SDS011;9213;50.858;3.964;2022-12-10T11:49:05;101.90;;;21.60;;
18176;SDS011;9213;50.858;3.964;2022-12-10T11:51:43;112.40;;;21.47;;
18176;SDS011;9213;50.858;3.964;2022-12-10T11:54:19;73.47;;;20.60;;
18176;SDS011;9213;50.858;3.964;2022-12-10T11:57:13;75.03;;;20.60;;
18176;SDS011;9213;50.858;3.964;2022-12-10T11:59:49;91.23;;;22.00;;
18176;SDS011;9213;50.858;3.964;2022-12-10T12:05:30;76.93;;;19.47;;
18176;SDS011;9213;50.858;3.964;2022-12-10T12:08:09;78.57;;;20.57;;
18176;SDS011;9213;50.858;3.964;2022-12-10T12:10:48;78.90;;;22.47;;
18176;SDS011;9213;50.858;3.964;2022-12-10T12:13:28;85.50;;;20.97;;
18176;SDS011;9213;50.858;3.964;2022-12-10T12:16:00;65.17;;;20.97;;
18176;SDS011;9213;50.858;3.964;2022-12-10T12:18:33;69.13;;;20.67;;
18176;SDS011;9213;50.858;3.964;2022-12-10T12:21:09;68.40;;;18.80;;
18176;SDS011;9213;50.858;3.964;2022-12-10T12:23:43;76.00;;;19.43;;
18176;SDS011;9213;50.858;3.964;2022-12-10T12:26:16;70.27;;;18.87;;
18176;SDS011;9213;50.858;3.964;2022-12-10T12:28:51;67.57;;;18.90;;
18176;SDS011;9213;50.858;3.964;2022-12-10T12:31:22;66.07;;;19.87;;
18176;SDS011;9213;50.858;3.964;2022-12-10T12:33:58;72.30;;;19.63;;
18176;SDS011;9213;50.858;3.964;2022-12-10T12:36:27;81.30;;;18.87;;
18176;SDS011;9213;50.858;3.964;2022-12-10T12:39:00;80.30;;;20.23;;
18176;SDS011;9213;50.858;3.964;2022-12-10T12:41:34;83.13;;;19.20;;
18176;SDS011;9213;50.858;3.964;2022-12-10T12:44:09;74.93;;;20.37;;
18176;SDS011;9213;50.858;3.964;2022-12-10T12:46:42;75.80;;;21.43;;
18176;SDS011;9213;50.858;3.964;2022-12-10T12:49:14;83.50;;;22.40;;
18176;SDS011;9213;50.858;3.964;2022-12-10T12:51:48;82.80;;;21.70;;
18176;SDS011;9213;50.858;3.964;2022-12-10T12:54:20;82.63;;;21.03;;
18176;SDS011;9213;50.858;3.964;2022-12-10T12:56:52;93.23;;;22.67;;
18176;SDS011;9213;50.858;3.964;2022-12-10T12:59:29;82.17;;;22.27;;
18176;SDS011;9213;50.858;3.964;2022-12-10T13:02:05;92.03;;;24.17;;
18176;SDS011;9213;50.858;3.964;2022-12-10T13:04:41;87.77;;;21.83;;
18176;SDS011;9213;50.858;3.964;2022-12-10T13:07:11;83.73;;;23.07;;
18176;SDS011;9213;50.858;3.964;2022-12-10T13:13:07;84.87;;;22.10;;
18176;SDS011;9213;50.858;3.964;2022-12-10T13:15:47;90.13;;;25.77;;
18176;SDS011;9213;50.858;3.964;2022-12-10T13:18:21;93.17;;;22.90;;
18176;SDS011;9213;50.858;3.964;2022-12-10T13:24:06;89.67;;;23.20;;
18176;SDS011;9213;50.858;3.964;2022-12-10T13:26:36;88.10;;;24.93;;
18176;SDS011;9213;50.858;3.964;2022-12-10T13:29:27;88.73;;;23.40;;
18176;SDS011;9213;50.858;3.964;2022-12-10T13:31:54;73.67;;;23.63;;
18176;SDS011;9213;50.858;3.964;2022-12-10T13:34:29;77.63;;;22.47;;
18176;SDS011;9213;50.858;3.964;2022-12-10T13:40:12;74.00;;;21.33;;
18176;SDS011;9213;50.858;3.964;2022-12-10T13:42:55;71.17;;;21.07;;
18176;SDS011;9213;50.858;3.964;2022-12-10T13:45:46;77.43;;;22.07;;
18176;SDS011;9213;50.858;3.964;2022-12-10T13:51:04;77.20;;;21.80;;
18176;SDS011;9213;50.858;3.964;2022-12-10T13:54:00;80.93;;;23.17;;
18176;SDS011;9213;50.858;3.964;2022-12-10T13:56:48;79.80;;;23.70;;
18176;SDS011;9213;50.858;3.964;2022-12-10T13:59:26;77.57;;;21.57;;
18176;SDS011;9213;50.858;3.964;2022-12-10T14:02:00;74.37;;;22.37;;
18176;SDS011;9213;50.858;3.964;2022-12-10T14:04:47;79.47;;;22.47;;
18176;SDS011;9213;50.858;3.964;2022-12-10T14:07:33;75.77;;;21.83;;
18176;SDS011;9213;50.858;3.964;2022-12-10T14:10:01;76.27;;;24.30;;
18176;SDS011;9213;50.858;3.964;2022-12-10T14:12:28;89.37;;;23.50;;
18176;SDS011;9213;50.858;3.964;2022-12-10T14:14:59;80.60;;;23.33;;
18176;SDS011;9213;50.858;3.964;2022-12-10T14:17:30;70.67;;;22.93;;
18176;SDS011;9213;50.858;3.964;2022-12-10T14:20:00;66.67;;;21.93;;
18176;SDS011;9213;50.858;3.964;2022-12-10T14:22:31;77.40;;;25.40;;
18176;SDS011;9213;50.858;3.964;2022-12-10T14:25:02;70.67;;;22.27;;
18176;SDS011;9213;50.858;3.964;2022-12-10T14:27:32;73.87;;;23.90;;
18176;SDS011;9213;50.858;3.964;2022-12-10T14:30:03;70.33;;;23.80;;
18176;SDS011;9213;50.858;3.964;2022-12-10T14:32:32;77.73;;;24.30;;
18176;SDS011;9213;50.858;3.964;2022-12-10T14:35:02;79.97;;;23.47;;
18176;SDS011;9213;50.858;3.964;2022-12-10T14:37:33;74.37;;;26.90;;
18176;SDS011;9213;50.858;3.964;2022-12-10T14:40:03;71.27;;;24.57;;
18176;SDS011;9213;50.858;3.964;2022-12-10T14:42:32;69.37;;;24.97;;
18176;SDS011;9213;50.858;3.964;2022-12-10T14:45:00;74.23;;;24.23;;
18176;SDS011;9213;50.858;3.964;2022-12-10T14:47:32;67.13;;;22.87;;
18176;SDS011;9213;50.858;3.964;2022-12-10T14:50:02;68.97;;;23.23;;
18176;SDS011;9213;50.858;3.964;2022-12-10T14:52:31;61.13;;;21.60;;
18176;SDS011;9213;50.858;3.964;2022-12-10T14:55:00;52.90;;;21.90;;
18176;SDS011;9213;50.858;3.964;2022-12-10T14:57:29;57.10;;;22.63;;
18176;SDS011;9213;50.858;3.964;2022-12-10T15:00:04;56.57;;;21.30;;